Tina — WDC3702 — position and weather

sailwx.info

Track history (hours):
 
Tides and Currents Weather Stations Pressure Air Temp Water Temp Dewpoint Dewpoint Depression Visibility Wind Speed Wind Dir Waves Ship Positions

Tina

Owner: Wilmington Tug, Inc., New Castle, DE. More information available from US FCC via Universal Licensing System and Coast Guard Vessel Documentation Center.

Last reported at 2018-Aug-19 15:01 UTC. Time now 2018-Aug-19 15:18 UTC.
Position N 39°43' W 075°31'.

Length 20 m; draft 3.4 m.

Type: Tug. MMSI: 367012670.

Date/timePositionNaut miles runAvg speedWind from/ knotsBaromVisibWave heightAir tempDewpointWater temp
2018-Aug-19 15:01N 39°43' W 075°31'0 0.0
2018-Aug-19 14:30N 39°43' W 075°31'0 0.0
2018-Aug-19 14:01N 39°43' W 075°31'0 0.0
2018-Aug-19 13:31N 39°43' W 075°31'0 0.0
2018-Aug-19 13:00N 39°43' W 075°31'0 0.0
2018-Aug-19 12:31N 39°43' W 075°31'0 0.0
2018-Aug-19 12:01N 39°43' W 075°31'0 0.0
2018-Aug-19 11:31N 39°43' W 075°31'0 0.0
2018-Aug-19 11:00N 39°43' W 075°31'0 0.0
2018-Aug-19 10:30N 39°43' W 075°31'0 0.0
2018-Aug-19 10:00N 39°43' W 075°31'0 0.0
2018-Aug-19 09:30N 39°43' W 075°31'0 0.0
2018-Aug-19 09:00N 39°43' W 075°31'0 0.0
2018-Aug-19 08:30N 39°43' W 075°31'0 0.0
2018-Aug-19 08:01N 39°43' W 075°31'0 0.7
2018-Aug-19 07:31N 39°43' W 075°31'1 1.4
2018-Aug-19 07:00N 39°43' W 075°31'0 0.7
2018-Aug-19 06:31N 39°43' W 075°31'0 0.9
2018-Aug-19 06:01N 39°43' W 075°31'0 0.0
2018-Aug-19 05:29N 39°43' W 075°31'0 0.0
2018-Aug-19 05:00N 39°43' W 075°31'0 0.0
2018-Aug-19 04:31N 39°43' W 075°31'0 0.0
2018-Aug-19 04:01N 39°43' W 075°31'0 0.0
2018-Aug-19 03:30N 39°43' W 075°31'0 0.0
2018-Aug-19 03:01N 39°43' W 075°31'0 0.0
2018-Aug-19 02:30N 39°43' W 075°31'0 0.0
2018-Aug-19 02:00N 39°43' W 075°31'0 0.0
2018-Aug-19 01:31N 39°43' W 075°31'0 0.0
2018-Aug-19 01:00N 39°43' W 075°31'0 0.0
2018-Aug-19 00:31N 39°43' W 075°31'0 0.0
2018-Aug-19 00:00N 39°43' W 075°31'0 0.0
2018-Aug-18 23:30N 39°43' W 075°31'0 0.0
2018-Aug-18 23:01N 39°43' W 075°31'0 0.0
2018-Aug-18 22:30N 39°43' W 075°31'0 0.0
2018-Aug-18 22:01N 39°43' W 075°31'0 0.0
2018-Aug-18 21:30N 39°43' W 075°31'0 0.0
2018-Aug-18 21:00N 39°43' W 075°31'0 0.0
2018-Aug-18 20:31N 39°43' W 075°31'0 0.0
2018-Aug-18 20:00N 39°43' W 075°31'0 0.0
2018-Aug-18 19:30N 39°43' W 075°31'0 0.0
2018-Aug-18 19:00N 39°43' W 075°31'0 0.0
2018-Aug-18 18:30N 39°43' W 075°31'0 0.0
2018-Aug-18 17:59N 39°43' W 075°31'0 0.0
2018-Aug-18 17:30N 39°43' W 075°31'0 0.0
2018-Aug-18 17:01N 39°43' W 075°31'0 0.0
2018-Aug-18 16:31N 39°43' W 075°31'0 0.0
2018-Aug-18 16:00N 39°43' W 075°31'0 0.0
2018-Aug-18 15:30N 39°43' W 075°31'0 0.0
2018-Aug-18 15:00N 39°43' W 075°31'2 4.1
2018-Aug-18 14:31N 39°41' W 075°31'4 8.2
2018-Aug-18 14:01N 39°38' W 075°35'3 6.4
2018-Aug-18 13:30N 39°35' W 075°35'0 0.0
2018-Aug-18 13:01N 39°35' W 075°35'0 0.0
2018-Aug-18 12:31N 39°35' W 075°35'0 0.0
2018-Aug-18 12:00N 39°35' W 075°35'0 0.0
2018-Aug-18 11:31N 39°35' W 075°35'0 0.0
2018-Aug-18 11:00N 39°35' W 075°35'0 0.0
2018-Aug-18 10:30N 39°35' W 075°35'0 0.0
2018-Aug-18 10:01N 39°35' W 075°35'1 1.5
2018-Aug-18 09:31N 39°35' W 075°35'1 1.4
2018-Aug-18 09:00N 39°35' W 075°35'0 0.6
2018-Aug-18 08:31N 39°35' W 075°36'1 1.4
2018-Aug-18 08:00N 39°36' W 075°36'4 8.1
2018-Aug-18 07:30N 39°39' W 075°33'4 8.0
2018-Aug-18 07:00N 39°43' W 075°31'0 1.0
2018-Aug-18 06:30N 39°43' W 075°31'0 0.0
2018-Aug-18 05:59N 39°43' W 075°31'0 0.0
2018-Aug-18 05:30N 39°43' W 075°31'0 0.0
2018-Aug-18 05:00N 39°43' W 075°31'0 0.0
2018-Aug-18 04:31N 39°43' W 075°31'0 0.0
2018-Aug-18 04:01N 39°43' W 075°31'3 5.9
2018-Aug-18 03:30N 39°40' W 075°32'4 8.8
2018-Aug-18 03:01N 39°37' W 075°36'2 3.9
2018-Aug-18 02:31N 39°35' W 075°35'0 0.0
2018-Aug-18 02:00N 39°35' W 075°35'0 0.5
2018-Aug-18 01:30N 39°35' W 075°35'0 0.0
2018-Aug-18 01:00N 39°35' W 075°35'0 0.0
2018-Aug-18 00:30N 39°35' W 075°35'0 0.0
2018-Aug-18 00:00N 39°35' W 075°35'0 0.0
2018-Aug-17 23:30N 39°35' W 075°35'3 6.5
2018-Aug-17 23:01N 39°38' W 075°35'5 9.8
2018-Aug-17 22:30N 39°42' W 075°31'1 2.9
2018-Aug-17 22:01N 39°43' W 075°31'1 1.5
2018-Aug-17 21:31N 39°43' W 075°31'0 0.4
2018-Aug-17 21:00N 39°43' W 075°30'0 0.9
2018-Aug-17 20:30N 39°43' W 075°31'0 0.0
2018-Aug-17 20:01N 39°43' W 075°31'0 0.0
2018-Aug-17 19:31N 39°43' W 075°31'0 0.0
2018-Aug-17 19:00N 39°43' W 075°31'0 0.0
2018-Aug-17 18:28N 39°43' W 075°31'0 0.3
2018-Aug-17 17:59N 39°43' W 075°31'0 0.3
2018-Aug-17 17:31N 39°43' W 075°31'0 0.0
2018-Aug-17 17:00N 39°43' W 075°31'0 0.0
2018-Aug-17 16:31N 39°43' W 075°31'0 0.0
2018-Aug-17 16:00N 39°43' W 075°31'0 0.0
2018-Aug-17 15:30N 39°43' W 075°31'0 0.0
2018-Aug-17 15:00N 39°43' W 075°31'0 0.0
2018-Aug-17 14:30N 39°43' W 075°31'0 0.0
2018-Aug-17 13:30N 39°43' W 075°31'0 0.0
2018-Aug-17 13:00N 39°43' W 075°31'0 0.0
2018-Aug-17 12:26N 39°43' W 075°31'0 0.0
2018-Aug-17 11:59N 39°43' W 075°31'0 0.0
2018-Aug-17 11:30N 39°43' W 075°31'0 0.0
2018-Aug-17 11:00N 39°43' W 075°31'0 0.0
2018-Aug-17 10:30N 39°43' W 075°31'0 0.0
2018-Aug-17 10:00N 39°43' W 075°31'0 0.0
2018-Aug-17 09:30N 39°43' W 075°31'0 0.0
2018-Aug-17 09:00N 39°43' W 075°31'0 0.0
2018-Aug-17 08:30N 39°43' W 075°31'0 0.0
2018-Aug-17 08:00N 39°43' W 075°31'0 0.0
2018-Aug-17 07:30N 39°43' W 075°31'0 0.0
2018-Aug-17 07:00N 39°43' W 075°31'0 0.0
2018-Aug-17 06:30N 39°43' W 075°31'0 0.0
2018-Aug-17 06:00N 39°43' W 075°31'0 0.0
2018-Aug-17 05:30N 39°43' W 075°31'0 0.0
2018-Aug-17 05:01N 39°43' W 075°31'0 0.0
2018-Aug-17 04:30N 39°43' W 075°31'0 0.0
2018-Aug-17 04:00N 39°43' W 075°31'0 0.0
2018-Aug-17 03:30N 39°43' W 075°31'0 0.0
2018-Aug-17 03:00N 39°43' W 075°31'0 0.0
2018-Aug-17 02:30N 39°43' W 075°31'0 0.0
2018-Aug-17 02:00N 39°43' W 075°31'0 0.0
2018-Aug-17 01:30N 39°43' W 075°31'0 0.0
2018-Aug-17 01:00N 39°43' W 075°31'0 0.0
2018-Aug-17 00:30N 39°43' W 075°31'0 0.0
2018-Aug-17 00:00N 39°43' W 075°31'0 0.0
2018-Aug-16 23:30N 39°43' W 075°31'0 0.0
2018-Aug-16 23:00N 39°43' W 075°31'0 0.0
2018-Aug-16 22:30N 39°43' W 075°31'0 0.0
2018-Aug-16 22:00N 39°43' W 075°31'0 0.0
2018-Aug-16 21:30N 39°43' W 075°31'0 0.0
2018-Aug-16 21:00N 39°43' W 075°31'0 0.0
2018-Aug-16 20:31N 39°43' W 075°31'0 0.0
2018-Aug-16 20:00N 39°43' W 075°31'0 0.0
2018-Aug-16 19:30N 39°43' W 075°31'0 0.0
2018-Aug-16 19:00N 39°43' W 075°31'0 0.0
2018-Aug-16 18:30N 39°43' W 075°31'0 0.0
2018-Aug-16 18:00N 39°43' W 075°31'0 0.0
2018-Aug-16 17:30N 39°43' W 075°31'0 0.0
2018-Aug-16 17:00N 39°43' W 075°31'0 0.0
2018-Aug-16 16:30N 39°43' W 075°31'0 0.0
2018-Aug-16 16:01N 39°43' W 075°31'0 0.0
2018-Aug-16 15:30N 39°43' W 075°31'0 0.0
2018-Aug-16 15:01N 39°43' W 075°31'0 0.0
2018-Aug-16 14:30N 39°43' W 075°31'0 0.0
2018-Aug-16 14:00N 39°43' W 075°31'0 0.0
2018-Aug-16 13:30N 39°43' W 075°31'0 0.0
2018-Aug-16 13:00N 39°43' W 075°31'0 0.0
2018-Aug-16 12:30N 39°43' W 075°31'0 0.0
2018-Aug-16 12:00N 39°43' W 075°31'0 0.0
2018-Aug-16 11:30N 39°43' W 075°31'0 0.0
2018-Aug-16 10:59N 39°43' W 075°31'0 0.0
2018-Aug-16 10:30N 39°43' W 075°31'0 0.0
2018-Aug-16 10:00N 39°43' W 075°31'0 0.0
2018-Aug-16 09:30N 39°43' W 075°31'0 0.0
2018-Aug-16 09:00N 39°43' W 075°31'0 0.0
2018-Aug-16 08:30N 39°43' W 075°31'0 0.0
2018-Aug-16 07:59N 39°43' W 075°31'0 0.0
2018-Aug-16 07:30N 39°43' W 075°31'0 0.0
2018-Aug-16 07:00N 39°43' W 075°31'0 0.0
2018-Aug-16 06:30N 39°43' W 075°31'0 0.0
2018-Aug-16 06:00N 39°43' W 075°31'0 0.0
2018-Aug-16 05:30N 39°43' W 075°31'0 0.0
2018-Aug-16 05:00N 39°43' W 075°31'0 0.0
2018-Aug-16 04:30N 39°43' W 075°31'0 0.0
2018-Aug-16 04:00N 39°43' W 075°31'0 0.0
2018-Aug-16 03:30N 39°43' W 075°31'0 0.0
2018-Aug-16 03:00N 39°43' W 075°31'0 0.0
2018-Aug-16 02:30N 39°43' W 075°31'0 0.0
2018-Aug-16 02:00N 39°43' W 075°31'0 0.0
2018-Aug-16 01:30N 39°43' W 075°31'0 0.0
2018-Aug-16 01:00N 39°43' W 075°31'0 0.0
2018-Aug-16 00:30N 39°43' W 075°31'0 0.0
2018-Aug-16 00:00N 39°43' W 075°31'0 0.0
2018-Aug-15 23:30N 39°43' W 075°31'0 0.0
2018-Aug-15 23:00N 39°43' W 075°31'0 0.0
2018-Aug-15 22:30N 39°43' W 075°31'0 0.0
2018-Aug-15 21:59N 39°43' W 075°31'0 0.0
2018-Aug-15 21:31N 39°43' W 075°31'0 0.0
2018-Aug-15 20:59N 39°43' W 075°31'0 0.0
2018-Aug-15 20:30N 39°43' W 075°31'0 0.0
2018-Aug-15 20:00N 39°43' W 075°31'0 0.0
2018-Aug-15 19:30N 39°43' W 075°31'0 0.0
2018-Aug-15 19:01N 39°43' W 075°31'0 0.0
2018-Aug-15 18:29N 39°43' W 075°31'0 0.0
2018-Aug-15 18:00N 39°43' W 075°31'0 0.0
2018-Aug-15 17:29N 39°43' W 075°31'0 0.0
2018-Aug-15 17:01N 39°43' W 075°31'0 0.0
2018-Aug-15 16:31N 39°43' W 075°31'0 0.0
2018-Aug-15 16:00N 39°43' W 075°31'0 0.0
2018-Aug-15 15:30N 39°43' W 075°31'0 0.0
2018-Aug-15 15:01N 39°43' W 075°31'0 0.0
2018-Aug-15 14:31N 39°43' W 075°31'0 0.0
2018-Aug-15 14:00N 39°43' W 075°31'0 0.0
2018-Aug-15 13:30N 39°43' W 075°31'0 0.0
2018-Aug-15 13:00N 39°43' W 075°31'0 0.0
2018-Aug-15 12:29N 39°43' W 075°31'0 0.0
2018-Aug-15 12:00N 39°43' W 075°31'0 0.0
2018-Aug-15 11:30N 39°43' W 075°31'0 0.0
2018-Aug-15 11:01N 39°43' W 075°31'0 0.0
2018-Aug-15 10:31N 39°43' W 075°31'0 0.0
2018-Aug-15 10:00N 39°43' W 075°31'0 0.0
2018-Aug-15 09:30N 39°43' W 075°31'0 0.0
2018-Aug-15 09:00N 39°43' W 075°31'0 0.0
2018-Aug-15 08:30N 39°43' W 075°31'0 0.0
2018-Aug-15 08:00N 39°43' W 075°31'0 0.0
2018-Aug-15 07:30N 39°43' W 075°31'0 0.0
2018-Aug-15 07:00N 39°43' W 075°31'0 0.0
2018-Aug-15 06:31N 39°43' W 075°31'0 0.0
2018-Aug-15 06:00N 39°43' W 075°31'0 0.0
2018-Aug-15 05:28N 39°43' W 075°31'0 0.0
2018-Aug-15 05:01N 39°43' W 075°31'0 0.0
2018-Aug-15 04:29N 39°43' W 075°31'0 0.0
2018-Aug-15 04:00N 39°43' W 075°31'0 0.0
2018-Aug-15 03:30N 39°43' W 075°31'0 0.0
2018-Aug-15 03:00N 39°43' W 075°31'0 0.0
2018-Aug-15 02:30N 39°43' W 075°31'0 0.0
2018-Aug-15 02:00N 39°43' W 075°31'0 0.0
2018-Aug-15 01:30N 39°43' W 075°31'0 0.0
2018-Aug-15 01:01N 39°43' W 075°31'0 0.0
2018-Aug-15 00:29N 39°43' W 075°31'0 0.0
2018-Aug-14 23:59N 39°43' W 075°31'0 0.0
2018-Aug-14 23:30N 39°43' W 075°31'0 0.0
2018-Aug-14 23:00N 39°43' W 075°31'0 0.0
2018-Aug-14 22:30N 39°43' W 075°31'0 0.0
2018-Aug-14 22:00N 39°43' W 075°31'0 0.0
2018-Aug-14 21:30N 39°43' W 075°31'0 0.0
2018-Aug-14 21:01N 39°43' W 075°31'0 0.0
2018-Aug-14 20:31N 39°43' W 075°31'0 0.0
2018-Aug-14 20:01N 39°43' W 075°31'0 0.0
2018-Aug-14 19:30N 39°43' W 075°31'0 0.0
2018-Aug-14 19:00N 39°43' W 075°31'0 0.0
2018-Aug-14 18:30N 39°43' W 075°31'0 0.0
2018-Aug-14 18:00N 39°43' W 075°31'0 0.0
2018-Aug-14 17:31N 39°43' W 075°31'0 0.0
2018-Aug-14 17:00N 39°43' W 075°31'0 0.0
2018-Aug-14 16:30N 39°43' W 075°31'0 0.0
2018-Aug-14 16:00N 39°43' W 075°31'0 0.0
2018-Aug-14 15:31N 39°43' W 075°31'0 0.0
2018-Aug-14 15:00N 39°43' W 075°31'0 0.0
2018-Aug-14 14:30N 39°43' W 075°31'0 0.0
2018-Aug-14 14:00N 39°43' W 075°31'0 0.0
2018-Aug-14 13:30N 39°43' W 075°31'0 0.0
2018-Aug-14 13:00N 39°43' W 075°31'0 0.0
2018-Aug-14 12:30N 39°43' W 075°31'0 0.0
2018-Aug-14 12:00N 39°43' W 075°31'0 0.0
2018-Aug-14 11:30N 39°43' W 075°31'0 0.0
2018-Aug-14 11:00N 39°43' W 075°31'0 0.0
2018-Aug-14 10:30N 39°43' W 075°31'0 0.0
2018-Aug-14 10:00N 39°43' W 075°31'0 0.0
2018-Aug-14 09:30N 39°43' W 075°31'0 0.0
2018-Aug-14 09:00N 39°43' W 075°31'0 0.0
2018-Aug-14 08:30N 39°43' W 075°31'0 0.1
2018-Aug-14 08:00N 39°43' W 075°31'1 1.8
2018-Aug-14 07:30N 39°42' W 075°31'1 1.6
2018-Aug-14 07:00N 39°43' W 075°31'0 0.0
2018-Aug-14 06:30N 39°43' W 075°31'0 0.0
2018-Aug-14 06:00N 39°43' W 075°31'0 0.0
2018-Aug-14 05:30N 39°43' W 075°31'0 0.0
2018-Aug-14 05:00N 39°43' W 075°31'0 0.0
2018-Aug-14 04:30N 39°43' W 075°31'0 0.0
2018-Aug-14 04:00N 39°43' W 075°31'0 0.0
2018-Aug-14 03:30N 39°43' W 075°31'0 0.0
2018-Aug-14 03:01N 39°43' W 075°31'0 0.0
2018-Aug-14 02:30N 39°43' W 075°31'0 0.0
2018-Aug-14 02:00N 39°43' W 075°31'0 0.0
2018-Aug-14 01:30N 39°43' W 075°31'0 0.0
2018-Aug-14 01:00N 39°43' W 075°31'0 0.0
2018-Aug-14 00:31N 39°43' W 075°31'0 0.0
2018-Aug-14 00:00N 39°43' W 075°31'0 0.0
2018-Aug-13 23:30N 39°43' W 075°31'0 0.0
2018-Aug-13 23:00N 39°43' W 075°31'0 0.0
2018-Aug-13 22:30N 39°43' W 075°31'0 0.0
2018-Aug-13 22:00N 39°43' W 075°31'0 0.0
2018-Aug-13 21:30N 39°43' W 075°31'0 0.0
2018-Aug-13 21:00N 39°43' W 075°31'0 0.0
2018-Aug-13 20:30N 39°43' W 075°31'0 0.0
2018-Aug-13 20:00N 39°43' W 075°31'0 0.0
2018-Aug-13 19:30N 39°43' W 075°31'0 0.0
2018-Aug-13 18:59N 39°43' W 075°31'0 0.0
2018-Aug-13 18:30N 39°43' W 075°31'0 0.0
2018-Aug-13 18:01N 39°43' W 075°31'0 0.0
2018-Aug-13 17:31N 39°43' W 075°31'0 0.0
2018-Aug-13 17:00N 39°43' W 075°31'0 0.0
2018-Aug-13 16:31N 39°43' W 075°31'0 0.0
2018-Aug-13 16:00N 39°43' W 075°31'0 0.0
2018-Aug-13 15:30N 39°43' W 075°31'0 0.0
2018-Aug-13 15:00N 39°43' W 075°31'0 0.0
2018-Aug-13 14:30N 39°43' W 075°31'0 0.0
2018-Aug-13 14:01N 39°43' W 075°31'0 0.0
2018-Aug-13 13:30N 39°43' W 075°31'0 0.0
2018-Aug-13 13:00N 39°43' W 075°31'0 0.0
2018-Aug-13 12:30N 39°43' W 075°31'0 0.0
2018-Aug-13 12:00N 39°43' W 075°31'0 0.0
2018-Aug-13 11:30N 39°43' W 075°31'0 0.0
2018-Aug-13 11:00N 39°43' W 075°31'0 0.0
2018-Aug-13 10:30N 39°43' W 075°31'0 0.0
2018-Aug-13 10:00N 39°43' W 075°31'0 0.0
2018-Aug-13 09:31N 39°43' W 075°31'0 0.0
2018-Aug-13 09:01N 39°43' W 075°31'0 0.0
2018-Aug-13 08:30N 39°43' W 075°31'0 0.0
2018-Aug-13 08:00N 39°43' W 075°31'0 0.0
2018-Aug-13 07:30N 39°43' W 075°31'0 0.0
2018-Aug-13 07:00N 39°43' W 075°31'0 0.0
2018-Aug-13 06:31N 39°43' W 075°31'0 0.0
2018-Aug-13 06:01N 39°43' W 075°31'0 0.0
2018-Aug-13 05:29N 39°43' W 075°31'0 0.0
2018-Aug-13 05:01N 39°43' W 075°31'0 0.0
2018-Aug-13 04:30N 39°43' W 075°31'0 0.0
2018-Aug-13 04:00N 39°43' W 075°31'0 0.0
2018-Aug-13 03:30N 39°43' W 075°31'0 0.0
2018-Aug-13 03:01N 39°43' W 075°31'0 0.0
2018-Aug-13 02:30N 39°43' W 075°31'0 0.0
2018-Aug-13 01:58N 39°43' W 075°31'0 0.0
2018-Aug-13 01:30N 39°43' W 075°31'0 0.0
2018-Aug-13 01:01N 39°43' W 075°31'0 0.0
2018-Aug-13 00:30N 39°43' W 075°31'0 0.0
2018-Aug-13 00:00N 39°43' W 075°31'0 0.0
2018-Aug-12 23:31N 39°43' W 075°31'0 0.0
2018-Aug-12 23:00N 39°43' W 075°31'0 0.0
2018-Aug-12 22:30N 39°43' W 075°31'0 0.0
2018-Aug-12 22:00N 39°43' W 075°31'0 0.0
2018-Aug-12 21:31N 39°43' W 075°31'0 0.0
2018-Aug-12 21:00N 39°43' W 075°31'0 0.0
2018-Aug-12 20:30N 39°43' W 075°31'0 0.0
2018-Aug-12 20:00N 39°43' W 075°31'0 0.0
2018-Aug-12 19:30N 39°43' W 075°31'0 0.0
2018-Aug-12 19:01N 39°43' W 075°31'0 0.0
2018-Aug-12 18:30N 39°43' W 075°31'0 0.0
2018-Aug-12 18:00N 39°43' W 075°31'0 0.0
2018-Aug-12 17:30N 39°43' W 075°31'0 0.0
2018-Aug-12 17:01N 39°43' W 075°31'0 0.0
2018-Aug-12 16:31N 39°43' W 075°31'0 0.0
2018-Aug-12 16:00N 39°43' W 075°31'0 0.0
2018-Aug-12 15:30N 39°43' W 075°31'0 0.0
2018-Aug-12 14:58N 39°43' W 075°31'0 0.0
2018-Aug-12 14:30N 39°43' W 075°31'0 0.0
2018-Aug-12 14:00N 39°43' W 075°31'0 0.0
2018-Aug-12 13:30N 39°43' W 075°31'0 0.0
2018-Aug-12 13:00N 39°43' W 075°31'0 0.0
2018-Aug-12 12:30N 39°43' W 075°31'0 0.0
2018-Aug-12 12:00N 39°43' W 075°31'0 0.0
2018-Aug-12 11:30N 39°43' W 075°31'0 0.0
2018-Aug-12 11:00N 39°43' W 075°31'0 0.0
2018-Aug-12 10:30N 39°43' W 075°31'0 0.0
2018-Aug-12 10:00N 39°43' W 075°31'0 0.0
2018-Aug-12 09:31N 39°43' W 075°31'0 0.0
2018-Aug-12 09:01N 39°43' W 075°31'0 0.0
2018-Aug-12 08:30N 39°43' W 075°31'0 0.0
2018-Aug-12 08:00N 39°43' W 075°31'0 0.0
2018-Aug-12 07:30N 39°43' W 075°31'0 0.0
2018-Aug-12 07:00N 39°43' W 075°31'0 0.0
2018-Aug-12 06:30N 39°43' W 075°31'0 0.0
2018-Aug-12 06:00N 39°43' W 075°31'0 0.0
2018-Aug-12 05:30N 39°43' W 075°31'0 0.0
2018-Aug-12 05:00N 39°43' W 075°31'0 0.0
2018-Aug-12 04:30N 39°43' W 075°31'0 0.0
2018-Aug-12 04:00N 39°43' W 075°31'0 0.0
2018-Aug-12 03:29N 39°43' W 075°31'0 0.0
2018-Aug-12 03:00N 39°43' W 075°31'0 0.0
2018-Aug-12 02:30N 39°43' W 075°31'0 0.0
2018-Aug-12 02:00N 39°43' W 075°31'0 0.0
2018-Aug-12 01:30N 39°43' W 075°31'0 0.0
2018-Aug-12 01:00N 39°43' W 075°31'0 0.0
2018-Aug-12 00:30N 39°43' W 075°31'0 0.0
2018-Aug-12 00:00N 39°43' W 075°31'0 0.0
2018-Aug-11 23:31N 39°43' W 075°31'0 0.0
2018-Aug-11 23:00N 39°43' W 075°31'0 0.0
2018-Aug-11 22:30N 39°43' W 075°31'0 0.0
2018-Aug-11 22:00N 39°43' W 075°31'0 0.0
2018-Aug-11 21:30N 39°43' W 075°31'0 0.0
2018-Aug-11 21:00N 39°43' W 075°31'0 0.0
2018-Aug-11 20:31N 39°43' W 075°31'0 0.0
2018-Aug-11 20:00N 39°43' W 075°31'0 0.0
2018-Aug-11 19:31N 39°43' W 075°31'0 0.0
2018-Aug-11 19:00N 39°43' W 075°31'0 0.0
2018-Aug-11 18:30N 39°43' W 075°31'0 0.0
2018-Aug-11 18:00N 39°43' W 075°31'0 0.0
2018-Aug-11 17:31N 39°43' W 075°31'0 0.0
2018-Aug-11 17:00N 39°43' W 075°31'0 0.0
2018-Aug-11 16:29N 39°43' W 075°31'0 0.0
2018-Aug-11 16:00N 39°43' W 075°31'0 0.0
2018-Aug-11 15:30N 39°43' W 075°31'0 0.0
2018-Aug-11 15:00N 39°43' W 075°31'0 0.0
2018-Aug-11 14:30N 39°43' W 075°31'0 0.0
2018-Aug-11 14:00N 39°43' W 075°31'0 0.0
2018-Aug-11 13:30N 39°43' W 075°31'0 0.0
2018-Aug-11 13:00N 39°43' W 075°31'0 0.0
2018-Aug-11 12:30N 39°43' W 075°31'0 0.0
2018-Aug-11 12:00N 39°43' W 075°31'0 0.0
2018-Aug-11 11:30N 39°43' W 075°31'0 0.0
2018-Aug-11 11:00N 39°43' W 075°31'0 0.0
2018-Aug-11 10:30N 39°43' W 075°31'0 0.0
2018-Aug-11 10:00N 39°43' W 075°31'0 0.0
2018-Aug-11 09:30N 39°43' W 075°31'0 0.0
2018-Aug-11 09:00N 39°43' W 075°31'0 0.0
2018-Aug-11 08:30N 39°43' W 075°31'0 0.0
2018-Aug-11 08:00N 39°43' W 075°31'0 0.0
2018-Aug-11 07:30N 39°43' W 075°31'0 0.0
2018-Aug-11 07:00N 39°43' W 075°31'0 0.0
2018-Aug-11 06:30N 39°43' W 075°31'0 0.0
2018-Aug-11 06:00N 39°43' W 075°31'0 0.0
2018-Aug-11 05:30N 39°43' W 075°31'0 0.0
2018-Aug-11 04:59N 39°43' W 075°31'0 0.0
2018-Aug-11 04:29N 39°43' W 075°31'0 0.0
2018-Aug-11 04:00N 39°43' W 075°31'0 0.0
2018-Aug-11 03:30N 39°43' W 075°31'0 0.0
2018-Aug-11 03:00N 39°43' W 075°31'0 0.0
2018-Aug-11 02:30N 39°43' W 075°31'0 0.0
2018-Aug-11 02:00N 39°43' W 075°31'0 0.0
2018-Aug-11 01:30N 39°43' W 075°31'0 0.0
2018-Aug-11 01:00N 39°43' W 075°31'0 0.0
2018-Aug-11 00:29N 39°43' W 075°31'0 0.0
2018-Aug-11 00:00N 39°43' W 075°31'0 0.0
2018-Aug-10 23:30N 39°43' W 075°31'0 0.0
2018-Aug-10 23:00N 39°43' W 075°31'0 0.0
2018-Aug-10 22:30N 39°43' W 075°31'0 0.0
2018-Aug-10 22:00N 39°43' W 075°31'0 0.0
2018-Aug-10 21:31N 39°43' W 075°31'0 0.0
2018-Aug-10 21:00N 39°43' W 075°31'0 0.0
2018-Aug-10 20:30N 39°43' W 075°31'0 0.0
2018-Aug-10 19:59N 39°43' W 075°31'0 0.0
2018-Aug-10 19:30N 39°43' W 075°31'0 0.0
2018-Aug-10 19:00N 39°43' W 075°31'0 0.0
2018-Aug-10 18:30N 39°43' W 075°31'0 0.0
2018-Aug-10 18:01N 39°43' W 075°31'0 0.0
2018-Aug-10 17:30N 39°43' W 075°31'0 0.0
2018-Aug-10 17:00N 39°43' W 075°31'0 0.0
2018-Aug-10 16:31N 39°43' W 075°31'0 0.0
2018-Aug-10 16:01N 39°43' W 075°31'0 0.0
2018-Aug-10 15:28N 39°43' W 075°31'0 0.0
2018-Aug-10 15:00N 39°43' W 075°31'0 0.0
2018-Aug-10 14:31N 39°43' W 075°31'0 0.0
2018-Aug-10 13:59N 39°43' W 075°31'0 0.0
2018-Aug-10 13:30N 39°43' W 075°31'0 0.0
2018-Aug-10 13:00N 39°43' W 075°31'0 0.0
2018-Aug-10 12:30N 39°43' W 075°31'0 0.0
2018-Aug-10 12:00N 39°43' W 075°31'0 0.0
2018-Aug-10 11:30N 39°43' W 075°31'0 0.0
2018-Aug-10 11:00N 39°43' W 075°31'0 0.0
2018-Aug-10 10:30N 39°43' W 075°31'0 0.0
2018-Aug-10 10:00N 39°43' W 075°31'0 0.0
2018-Aug-10 09:30N 39°43' W 075°31'0 0.0
2018-Aug-10 09:01N 39°43' W 075°31'0 0.0
2018-Aug-10 08:30N 39°43' W 075°31'0 0.0
2018-Aug-10 08:00N 39°43' W 075°31'0 0.0
2018-Aug-10 07:30N 39°43' W 075°31'0 0.0
2018-Aug-10 07:00N 39°43' W 075°31'0 0.0
2018-Aug-10 06:30N 39°43' W 075°31'0 0.0
2018-Aug-10 06:00N 39°43' W 075°31'0 0.0
2018-Aug-10 05:31N 39°43' W 075°31'0 0.0
2018-Aug-10 05:00N 39°43' W 075°31'0 0.0
2018-Aug-10 04:30N 39°43' W 075°31'0 0.0
2018-Aug-10 04:00N 39°43' W 075°31'0 0.0
2018-Aug-10 03:30N 39°43' W 075°31'0 0.0
2018-Aug-10 03:00N 39°43' W 075°31'0 0.0
2018-Aug-10 02:30N 39°43' W 075°31'0 0.0
2018-Aug-10 02:00N 39°43' W 075°31'0 0.0
2018-Aug-10 01:30N 39°43' W 075°31'0 0.0
2018-Aug-10 01:00N 39°43' W 075°31'0 0.0
2018-Aug-10 00:31N 39°43' W 075°31'0 0.0
2018-Aug-10 00:00N 39°43' W 075°31'0 0.0
2018-Aug-09 23:30N 39°43' W 075°31'0 0.0
2018-Aug-09 23:00N 39°43' W 075°31'0 0.0
2018-Aug-09 22:30N 39°43' W 075°31'0 0.0
2018-Aug-09 22:00N 39°43' W 075°31'0 0.0
2018-Aug-09 21:30N 39°43' W 075°31'0 0.0
2018-Aug-09 21:00N 39°43' W 075°31'0 0.0
2018-Aug-09 20:30N 39°43' W 075°31'0 0.0
2018-Aug-09 20:00N 39°43' W 075°31'0 0.0
2018-Aug-09 19:30N 39°43' W 075°31'0 0.0
2018-Aug-09 18:59N 39°43' W 075°31'0 0.0
2018-Aug-09 18:30N 39°43' W 075°31'0 0.0
2018-Aug-09 18:01N 39°43' W 075°31'0 0.0
2018-Aug-09 17:30N 39°43' W 075°31'0 0.0
2018-Aug-09 17:00N 39°43' W 075°31'0 0.0
2018-Aug-09 16:30N 39°43' W 075°31'0 0.0
2018-Aug-09 16:00N 39°43' W 075°31'0 0.0
2018-Aug-09 15:30N 39°43' W 075°31'  
Track history (hours):
 
Tides and Currents Weather Stations Pressure Air Temp Water Temp Dewpoint Dewpoint Depression Visibility Wind Speed Wind Dir Waves Ship Positions

Tina

Owner: Wilmington Tug, Inc., New Castle, DE. More information available from US FCC via Universal Licensing System and Coast Guard Vessel Documentation Center.

Last reported at 2018-Aug-19 15:01 UTC. Time now 2018-Aug-19 15:18 UTC.
Position N 39°43' W 075°31'.

Length 20 m; draft 3.4 m.

Type: Tug. MMSI: 367012670.

Date/timePositionNaut miles runAvg speedWind from/ knotsBaromVisibWave heightAir tempDewpointWater temp
2018-Aug-19 15:01N 39°43' W 075°31'0 0.0
2018-Aug-19 14:30N 39°43' W 075°31'0 0.0
2018-Aug-19 14:01N 39°43' W 075°31'0 0.0
2018-Aug-19 13:31N 39°43' W 075°31'0 0.0
2018-Aug-19 13:00N 39°43' W 075°31'0 0.0
2018-Aug-19 12:31N 39°43' W 075°31'0 0.0
2018-Aug-19 12:01N 39°43' W 075°31'0 0.0
2018-Aug-19 11:31N 39°43' W 075°31'0 0.0
2018-Aug-19 11:00N 39°43' W 075°31'0 0.0
2018-Aug-19 10:30N 39°43' W 075°31'0 0.0
2018-Aug-19 10:00N 39°43' W 075°31'0 0.0
2018-Aug-19 09:30N 39°43' W 075°31'0 0.0
2018-Aug-19 09:00N 39°43' W 075°31'0 0.0
2018-Aug-19 08:30N 39°43' W 075°31'0 0.0
2018-Aug-19 08:01N 39°43' W 075°31'0 0.7
2018-Aug-19 07:31N 39°43' W 075°31'1 1.4
2018-Aug-19 07:00N 39°43' W 075°31'0 0.7
2018-Aug-19 06:31N 39°43' W 075°31'0 0.9
2018-Aug-19 06:01N 39°43' W 075°31'0 0.0
2018-Aug-19 05:29N 39°43' W 075°31'0 0.0
2018-Aug-19 05:00N 39°43' W 075°31'0 0.0
2018-Aug-19 04:31N 39°43' W 075°31'0 0.0
2018-Aug-19 04:01N 39°43' W 075°31'0 0.0
2018-Aug-19 03:30N 39°43' W 075°31'0 0.0
2018-Aug-19 03:01N 39°43' W 075°31'0 0.0
2018-Aug-19 02:30N 39°43' W 075°31'0 0.0
2018-Aug-19 02:00N 39°43' W 075°31'0 0.0
2018-Aug-19 01:31N 39°43' W 075°31'0 0.0
2018-Aug-19 01:00N 39°43' W 075°31'0 0.0
2018-Aug-19 00:31N 39°43' W 075°31'0 0.0
2018-Aug-19 00:00N 39°43' W 075°31'0 0.0
2018-Aug-18 23:30N 39°43' W 075°31'0 0.0
2018-Aug-18 23:01N 39°43' W 075°31'0 0.0
2018-Aug-18 22:30N 39°43' W 075°31'0 0.0
2018-Aug-18 22:01N 39°43' W 075°31'0 0.0
2018-Aug-18 21:30N 39°43' W 075°31'0 0.0
2018-Aug-18 21:00N 39°43' W 075°31'0 0.0
2018-Aug-18 20:31N 39°43' W 075°31'0 0.0
2018-Aug-18 20:00N 39°43' W 075°31'0 0.0
2018-Aug-18 19:30N 39°43' W 075°31'0 0.0
2018-Aug-18 19:00N 39°43' W 075°31'0 0.0
2018-Aug-18 18:30N 39°43' W 075°31'0 0.0
2018-Aug-18 17:59N 39°43' W 075°31'0 0.0
2018-Aug-18 17:30N 39°43' W 075°31'0 0.0
2018-Aug-18 17:01N 39°43' W 075°31'0 0.0
2018-Aug-18 16:31N 39°43' W 075°31'0 0.0
2018-Aug-18 16:00N 39°43' W 075°31'0 0.0
2018-Aug-18 15:30N 39°43' W 075°31'0 0.0
2018-Aug-18 15:00N 39°43' W 075°31'2 4.1
2018-Aug-18 14:31N 39°41' W 075°31'4 8.2
2018-Aug-18 14:01N 39°38' W 075°35'3 6.4
2018-Aug-18 13:30N 39°35' W 075°35'0 0.0
2018-Aug-18 13:01N 39°35' W 075°35'0 0.0
2018-Aug-18 12:31N 39°35' W 075°35'0 0.0
2018-Aug-18 12:00N 39°35' W 075°35'0 0.0
2018-Aug-18 11:31N 39°35' W 075°35'0 0.0
2018-Aug-18 11:00N 39°35' W 075°35'0 0.0
2018-Aug-18 10:30N 39°35' W 075°35'0 0.0
2018-Aug-18 10:01N 39°35' W 075°35'1 1.5
2018-Aug-18 09:31N 39°35' W 075°35'1 1.4
2018-Aug-18 09:00N 39°35' W 075°35'0 0.6
2018-Aug-18 08:31N 39°35' W 075°36'1 1.4
2018-Aug-18 08:00N 39°36' W 075°36'4 8.1
2018-Aug-18 07:30N 39°39' W 075°33'4 8.0
2018-Aug-18 07:00N 39°43' W 075°31'0 1.0
2018-Aug-18 06:30N 39°43' W 075°31'0 0.0
2018-Aug-18 05:59N 39°43' W 075°31'0 0.0
2018-Aug-18 05:30N 39°43' W 075°31'0 0.0
2018-Aug-18 05:00N 39°43' W 075°31'0 0.0
2018-Aug-18 04:31N 39°43' W 075°31'0 0.0
2018-Aug-18 04:01N 39°43' W 075°31'3 5.9
2018-Aug-18 03:30N 39°40' W 075°32'4 8.8
2018-Aug-18 03:01N 39°37' W 075°36'2 3.9
2018-Aug-18 02:31N 39°35' W 075°35'0 0.0
2018-Aug-18 02:00N 39°35' W 075°35'0 0.5
2018-Aug-18 01:30N 39°35' W 075°35'0 0.0
2018-Aug-18 01:00N 39°35' W 075°35'0 0.0
2018-Aug-18 00:30N 39°35' W 075°35'0 0.0
2018-Aug-18 00:00N 39°35' W 075°35'0 0.0
2018-Aug-17 23:30N 39°35' W 075°35'3 6.5
2018-Aug-17 23:01N 39°38' W 075°35'5 9.8
2018-Aug-17 22:30N 39°42' W 075°31'1 2.9
2018-Aug-17 22:01N 39°43' W 075°31'1 1.5
2018-Aug-17 21:31N 39°43' W 075°31'0 0.4
2018-Aug-17 21:00N 39°43' W 075°30'0 0.9
2018-Aug-17 20:30N 39°43' W 075°31'0 0.0
2018-Aug-17 20:01N 39°43' W 075°31'0 0.0
2018-Aug-17 19:31N 39°43' W 075°31'0 0.0
2018-Aug-17 19:00N 39°43' W 075°31'0 0.0
2018-Aug-17 18:28N 39°43' W 075°31'0 0.3
2018-Aug-17 17:59N 39°43' W 075°31'0 0.3
2018-Aug-17 17:31N 39°43' W 075°31'0 0.0
2018-Aug-17 17:00N 39°43' W 075°31'0 0.0
2018-Aug-17 16:31N 39°43' W 075°31'0 0.0
2018-Aug-17 16:00N 39°43' W 075°31'0 0.0
2018-Aug-17 15:30N 39°43' W 075°31'0 0.0
2018-Aug-17 15:00N 39°43' W 075°31'0 0.0
2018-Aug-17 14:30N 39°43' W 075°31'0 0.0
2018-Aug-17 13:30N 39°43' W 075°31'0 0.0
2018-Aug-17 13:00N 39°43' W 075°31'0 0.0
2018-Aug-17 12:26N 39°43' W 075°31'0 0.0
2018-Aug-17 11:59N 39°43' W 075°31'0 0.0
2018-Aug-17 11:30N 39°43' W 075°31'0 0.0
2018-Aug-17 11:00N 39°43' W 075°31'0 0.0
2018-Aug-17 10:30N 39°43' W 075°31'0 0.0
2018-Aug-17 10:00N 39°43' W 075°31'0 0.0
2018-Aug-17 09:30N 39°43' W 075°31'0 0.0
2018-Aug-17 09:00N 39°43' W 075°31'0 0.0
2018-Aug-17 08:30N 39°43' W 075°31'0 0.0
2018-Aug-17 08:00N 39°43' W 075°31'0 0.0
2018-Aug-17 07:30N 39°43' W 075°31'0 0.0
2018-Aug-17 07:00N 39°43' W 075°31'0 0.0
2018-Aug-17 06:30N 39°43' W 075°31'0 0.0
2018-Aug-17 06:00N 39°43' W 075°31'0 0.0
2018-Aug-17 05:30N 39°43' W 075°31'0 0.0
2018-Aug-17 05:01N 39°43' W 075°31'0 0.0
2018-Aug-17 04:30N 39°43' W 075°31'0 0.0
2018-Aug-17 04:00N 39°43' W 075°31'0 0.0
2018-Aug-17 03:30N 39°43' W 075°31'0 0.0
2018-Aug-17 03:00N 39°43' W 075°31'0 0.0
2018-Aug-17 02:30N 39°43' W 075°31'0 0.0
2018-Aug-17 02:00N 39°43' W 075°31'0 0.0
2018-Aug-17 01:30N 39°43' W 075°31'0 0.0
2018-Aug-17 01:00N 39°43' W 075°31'0 0.0
2018-Aug-17 00:30N 39°43' W 075°31'0 0.0
2018-Aug-17 00:00N 39°43' W 075°31'0 0.0
2018-Aug-16 23:30N 39°43' W 075°31'0 0.0
2018-Aug-16 23:00N 39°43' W 075°31'0 0.0
2018-Aug-16 22:30N 39°43' W 075°31'0 0.0
2018-Aug-16 22:00N 39°43' W 075°31'0 0.0
2018-Aug-16 21:30N 39°43' W 075°31'0 0.0
2018-Aug-16 21:00N 39°43' W 075°31'0 0.0
2018-Aug-16 20:31N 39°43' W 075°31'0 0.0
2018-Aug-16 20:00N 39°43' W 075°31'0 0.0
2018-Aug-16 19:30N 39°43' W 075°31'0 0.0
2018-Aug-16 19:00N 39°43' W 075°31'0 0.0
2018-Aug-16 18:30N 39°43' W 075°31'0 0.0
2018-Aug-16 18:00N 39°43' W 075°31'0 0.0
2018-Aug-16 17:30N 39°43' W 075°31'0 0.0
2018-Aug-16 17:00N 39°43' W 075°31'0 0.0
2018-Aug-16 16:30N 39°43' W 075°31'0 0.0
2018-Aug-16 16:01N 39°43' W 075°31'0 0.0
2018-Aug-16 15:30N 39°43' W 075°31'0 0.0
2018-Aug-16 15:01N 39°43' W 075°31'0 0.0
2018-Aug-16 14:30N 39°43' W 075°31'0 0.0
2018-Aug-16 14:00N 39°43' W 075°31'0 0.0
2018-Aug-16 13:30N 39°43' W 075°31'0 0.0
2018-Aug-16 13:00N 39°43' W 075°31'0 0.0
2018-Aug-16 12:30N 39°43' W 075°31'0 0.0
2018-Aug-16 12:00N 39°43' W 075°31'0 0.0
2018-Aug-16 11:30N 39°43' W 075°31'0 0.0
2018-Aug-16 10:59N 39°43' W 075°31'0 0.0
2018-Aug-16 10:30N 39°43' W 075°31'0 0.0
2018-Aug-16 10:00N 39°43' W 075°31'0 0.0
2018-Aug-16 09:30N 39°43' W 075°31'0 0.0
2018-Aug-16 09:00N 39°43' W 075°31'0 0.0
2018-Aug-16 08:30N 39°43' W 075°31'0 0.0
2018-Aug-16 07:59N 39°43' W 075°31'0 0.0
2018-Aug-16 07:30N 39°43' W 075°31'0 0.0
2018-Aug-16 07:00N 39°43' W 075°31'0 0.0
2018-Aug-16 06:30N 39°43' W 075°31'0 0.0
2018-Aug-16 06:00N 39°43' W 075°31'0 0.0
2018-Aug-16 05:30N 39°43' W 075°31'0 0.0
2018-Aug-16 05:00N 39°43' W 075°31'0 0.0
2018-Aug-16 04:30N 39°43' W 075°31'0 0.0
2018-Aug-16 04:00N 39°43' W 075°31'0 0.0
2018-Aug-16 03:30N 39°43' W 075°31'0 0.0
2018-Aug-16 03:00N 39°43' W 075°31'0 0.0
2018-Aug-16 02:30N 39°43' W 075°31'0 0.0
2018-Aug-16 02:00N 39°43' W 075°31'0 0.0
2018-Aug-16 01:30N 39°43' W 075°31'0 0.0
2018-Aug-16 01:00N 39°43' W 075°31'0 0.0
2018-Aug-16 00:30N 39°43' W 075°31'0 0.0
2018-Aug-16 00:00N 39°43' W 075°31'0 0.0
2018-Aug-15 23:30N 39°43' W 075°31'0 0.0
2018-Aug-15 23:00N 39°43' W 075°31'0 0.0
2018-Aug-15 22:30N 39°43' W 075°31'0 0.0
2018-Aug-15 21:59N 39°43' W 075°31'0 0.0
2018-Aug-15 21:31N 39°43' W 075°31'0 0.0
2018-Aug-15 20:59N 39°43' W 075°31'0 0.0
2018-Aug-15 20:30N 39°43' W 075°31'0 0.0
2018-Aug-15 20:00N 39°43' W 075°31'0 0.0
2018-Aug-15 19:30N 39°43' W 075°31'0 0.0
2018-Aug-15 19:01N 39°43' W 075°31'0 0.0
2018-Aug-15 18:29N 39°43' W 075°31'0 0.0
2018-Aug-15 18:00N 39°43' W 075°31'0 0.0
2018-Aug-15 17:29N 39°43' W 075°31'0 0.0
2018-Aug-15 17:01N 39°43' W 075°31'0 0.0
2018-Aug-15 16:31N 39°43' W 075°31'0 0.0
2018-Aug-15 16:00N 39°43' W 075°31'0 0.0
2018-Aug-15 15:30N 39°43' W 075°31'0 0.0
2018-Aug-15 15:01N 39°43' W 075°31'0 0.0
2018-Aug-15 14:31N 39°43' W 075°31'0 0.0
2018-Aug-15 14:00N 39°43' W 075°31'0 0.0
2018-Aug-15 13:30N 39°43' W 075°31'0 0.0
2018-Aug-15 13:00N 39°43' W 075°31'0 0.0
2018-Aug-15 12:29N 39°43' W 075°31'0 0.0
2018-Aug-15 12:00N 39°43' W 075°31'0 0.0
2018-Aug-15 11:30N 39°43' W 075°31'0 0.0
2018-Aug-15 11:01N 39°43' W 075°31'0 0.0
2018-Aug-15 10:31N 39°43' W 075°31'0 0.0
2018-Aug-15 10:00N 39°43' W 075°31'0 0.0
2018-Aug-15 09:30N 39°43' W 075°31'0 0.0
2018-Aug-15 09:00N 39°43' W 075°31'0 0.0
2018-Aug-15 08:30N 39°43' W 075°31'0 0.0
2018-Aug-15 08:00N 39°43' W 075°31'0 0.0
2018-Aug-15 07:30N 39°43' W 075°31'0 0.0
2018-Aug-15 07:00N 39°43' W 075°31'0 0.0
2018-Aug-15 06:31N 39°43' W 075°31'0 0.0
2018-Aug-15 06:00N 39°43' W 075°31'0 0.0
2018-Aug-15 05:28N 39°43' W 075°31'0 0.0
2018-Aug-15 05:01N 39°43' W 075°31'0 0.0
2018-Aug-15 04:29N 39°43' W 075°31'0 0.0
2018-Aug-15 04:00N 39°43' W 075°31'0 0.0
2018-Aug-15 03:30N 39°43' W 075°31'0 0.0
2018-Aug-15 03:00N 39°43' W 075°31'0 0.0
2018-Aug-15 02:30N 39°43' W 075°31'0 0.0
2018-Aug-15 02:00N 39°43' W 075°31'0 0.0
2018-Aug-15 01:30N 39°43' W 075°31'0 0.0
2018-Aug-15 01:01N 39°43' W 075°31'0 0.0
2018-Aug-15 00:29N 39°43' W 075°31'0 0.0
2018-Aug-14 23:59N 39°43' W 075°31'0 0.0
2018-Aug-14 23:30N 39°43' W 075°31'0 0.0
2018-Aug-14 23:00N 39°43' W 075°31'0 0.0
2018-Aug-14 22:30N 39°43' W 075°31'0 0.0
2018-Aug-14 22:00N 39°43' W 075°31'0 0.0
2018-Aug-14 21:30N 39°43' W 075°31'0 0.0
2018-Aug-14 21:01N 39°43' W 075°31'0 0.0
2018-Aug-14 20:31N 39°43' W 075°31'0 0.0
2018-Aug-14 20:01N 39°43' W 075°31'0 0.0
2018-Aug-14 19:30N 39°43' W 075°31'0 0.0
2018-Aug-14 19:00N 39°43' W 075°31'0 0.0
2018-Aug-14 18:30N 39°43' W 075°31'0 0.0
2018-Aug-14 18:00N 39°43' W 075°31'0 0.0
2018-Aug-14 17:31N 39°43' W 075°31'0 0.0
2018-Aug-14 17:00N 39°43' W 075°31'0 0.0
2018-Aug-14 16:30N 39°43' W 075°31'0 0.0
2018-Aug-14 16:00N 39°43' W 075°31'0 0.0
2018-Aug-14 15:31N 39°43' W 075°31'0 0.0
2018-Aug-14 15:00N 39°43' W 075°31'0 0.0
2018-Aug-14 14:30N 39°43' W 075°31'0 0.0
2018-Aug-14 14:00N 39°43' W 075°31'0 0.0
2018-Aug-14 13:30N 39°43' W 075°31'0 0.0
2018-Aug-14 13:00N 39°43' W 075°31'0 0.0
2018-Aug-14 12:30N 39°43' W 075°31'0 0.0
2018-Aug-14 12:00N 39°43' W 075°31'0 0.0
2018-Aug-14 11:30N 39°43' W 075°31'0 0.0
2018-Aug-14 11:00N 39°43' W 075°31'0 0.0
2018-Aug-14 10:30N 39°43' W 075°31'0 0.0
2018-Aug-14 10:00N 39°43' W 075°31'0 0.0
2018-Aug-14 09:30N 39°43' W 075°31'0 0.0
2018-Aug-14 09:00N 39°43' W 075°31'0 0.0
2018-Aug-14 08:30N 39°43' W 075°31'0 0.1
2018-Aug-14 08:00N 39°43' W 075°31'1 1.8
2018-Aug-14 07:30N 39°42' W 075°31'1 1.6
2018-Aug-14 07:00N 39°43' W 075°31'0 0.0
2018-Aug-14 06:30N 39°43' W 075°31'0 0.0
2018-Aug-14 06:00N 39°43' W 075°31'0 0.0
2018-Aug-14 05:30N 39°43' W 075°31'0 0.0
2018-Aug-14 05:00N 39°43' W 075°31'0 0.0
2018-Aug-14 04:30N 39°43' W 075°31'0 0.0
2018-Aug-14 04:00N 39°43' W 075°31'0 0.0
2018-Aug-14 03:30N 39°43' W 075°31'0 0.0
2018-Aug-14 03:01N 39°43' W 075°31'0 0.0
2018-Aug-14 02:30N 39°43' W 075°31'0 0.0
2018-Aug-14 02:00N 39°43' W 075°31'0 0.0
2018-Aug-14 01:30N 39°43' W 075°31'0 0.0
2018-Aug-14 01:00N 39°43' W 075°31'0 0.0
2018-Aug-14 00:31N 39°43' W 075°31'0 0.0
2018-Aug-14 00:00N 39°43' W 075°31'0 0.0
2018-Aug-13 23:30N 39°43' W 075°31'0 0.0
2018-Aug-13 23:00N 39°43' W 075°31'0 0.0
2018-Aug-13 22:30N 39°43' W 075°31'0 0.0
2018-Aug-13 22:00N 39°43' W 075°31'0 0.0
2018-Aug-13 21:30N 39°43' W 075°31'0 0.0
2018-Aug-13 21:00N 39°43' W 075°31'0 0.0
2018-Aug-13 20:30N 39°43' W 075°31'0 0.0
2018-Aug-13 20:00N 39°43' W 075°31'0 0.0
2018-Aug-13 19:30N 39°43' W 075°31'0 0.0
2018-Aug-13 18:59N 39°43' W 075°31'0 0.0
2018-Aug-13 18:30N 39°43' W 075°31'0 0.0
2018-Aug-13 18:01N 39°43' W 075°31'0 0.0
2018-Aug-13 17:31N 39°43' W 075°31'0 0.0
2018-Aug-13 17:00N 39°43' W 075°31'0 0.0
2018-Aug-13 16:31N 39°43' W 075°31'0 0.0
2018-Aug-13 16:00N 39°43' W 075°31'0 0.0
2018-Aug-13 15:30N 39°43' W 075°31'0 0.0
2018-Aug-13 15:00N 39°43' W 075°31'0 0.0
2018-Aug-13 14:30N 39°43' W 075°31'0 0.0
2018-Aug-13 14:01N 39°43' W 075°31'0 0.0
2018-Aug-13 13:30N 39°43' W 075°31'0 0.0
2018-Aug-13 13:00N 39°43' W 075°31'0 0.0
2018-Aug-13 12:30N 39°43' W 075°31'0 0.0
2018-Aug-13 12:00N 39°43' W 075°31'0 0.0
2018-Aug-13 11:30N 39°43' W 075°31'0 0.0
2018-Aug-13 11:00N 39°43' W 075°31'0 0.0
2018-Aug-13 10:30N 39°43' W 075°31'0 0.0
2018-Aug-13 10:00N 39°43' W 075°31'0 0.0
2018-Aug-13 09:31N 39°43' W 075°31'0 0.0
2018-Aug-13 09:01N 39°43' W 075°31'0 0.0
2018-Aug-13 08:30N 39°43' W 075°31'0 0.0
2018-Aug-13 08:00N 39°43' W 075°31'0 0.0
2018-Aug-13 07:30N 39°43' W 075°31'0 0.0
2018-Aug-13 07:00N 39°43' W 075°31'0 0.0
2018-Aug-13 06:31N 39°43' W 075°31'0 0.0
2018-Aug-13 06:01N 39°43' W 075°31'0 0.0
2018-Aug-13 05:29N 39°43' W 075°31'0 0.0
2018-Aug-13 05:01N 39°43' W 075°31'0 0.0
2018-Aug-13 04:30N 39°43' W 075°31'0 0.0
2018-Aug-13 04:00N 39°43' W 075°31'0 0.0
2018-Aug-13 03:30N 39°43' W 075°31'0 0.0
2018-Aug-13 03:01N 39°43' W 075°31'0 0.0
2018-Aug-13 02:30N 39°43' W 075°31'0 0.0
2018-Aug-13 01:58N 39°43' W 075°31'0 0.0
2018-Aug-13 01:30N 39°43' W 075°31'0 0.0
2018-Aug-13 01:01N 39°43' W 075°31'0 0.0
2018-Aug-13 00:30N 39°43' W 075°31'0 0.0
2018-Aug-13 00:00N 39°43' W 075°31'0 0.0
2018-Aug-12 23:31N 39°43' W 075°31'0 0.0
2018-Aug-12 23:00N 39°43' W 075°31'0 0.0
2018-Aug-12 22:30N 39°43' W 075°31'0 0.0
2018-Aug-12 22:00N 39°43' W 075°31'0 0.0
2018-Aug-12 21:31N 39°43' W 075°31'0 0.0
2018-Aug-12 21:00N 39°43' W 075°31'0 0.0
2018-Aug-12 20:30N 39°43' W 075°31'0 0.0
2018-Aug-12 20:00N 39°43' W 075°31'0 0.0
2018-Aug-12 19:30N 39°43' W 075°31'0 0.0
2018-Aug-12 19:01N 39°43' W 075°31'0 0.0
2018-Aug-12 18:30N 39°43' W 075°31'0 0.0
2018-Aug-12 18:00N 39°43' W 075°31'0 0.0
2018-Aug-12 17:30N 39°43' W 075°31'0 0.0
2018-Aug-12 17:01N 39°43' W 075°31'0 0.0
2018-Aug-12 16:31N 39°43' W 075°31'0 0.0
2018-Aug-12 16:00N 39°43' W 075°31'0 0.0
2018-Aug-12 15:30N 39°43' W 075°31'0 0.0
2018-Aug-12 14:58N 39°43' W 075°31'0 0.0
2018-Aug-12 14:30N 39°43' W 075°31'0 0.0
2018-Aug-12 14:00N 39°43' W 075°31'0 0.0
2018-Aug-12 13:30N 39°43' W 075°31'0 0.0
2018-Aug-12 13:00N 39°43' W 075°31'0 0.0
2018-Aug-12 12:30N 39°43' W 075°31'0 0.0
2018-Aug-12 12:00N 39°43' W 075°31'0 0.0
2018-Aug-12 11:30N 39°43' W 075°31'0 0.0
2018-Aug-12 11:00N 39°43' W 075°31'0 0.0
2018-Aug-12 10:30N 39°43' W 075°31'0 0.0
2018-Aug-12 10:00N 39°43' W 075°31'0 0.0
2018-Aug-12 09:31N 39°43' W 075°31'0 0.0
2018-Aug-12 09:01N 39°43' W 075°31'0 0.0
2018-Aug-12 08:30N 39°43' W 075°31'0 0.0
2018-Aug-12 08:00N 39°43' W 075°31'0 0.0
2018-Aug-12 07:30N 39°43' W 075°31'0 0.0
2018-Aug-12 07:00N 39°43' W 075°31'0 0.0
2018-Aug-12 06:30N 39°43' W 075°31'0 0.0
2018-Aug-12 06:00N 39°43' W 075°31'0 0.0
2018-Aug-12 05:30N 39°43' W 075°31'0 0.0
2018-Aug-12 05:00N 39°43' W 075°31'0 0.0
2018-Aug-12 04:30N 39°43' W 075°31'0 0.0
2018-Aug-12 04:00N 39°43' W 075°31'0 0.0
2018-Aug-12 03:29N 39°43' W 075°31'0 0.0
2018-Aug-12 03:00N 39°43' W 075°31'0 0.0
2018-Aug-12 02:30N 39°43' W 075°31'0 0.0
2018-Aug-12 02:00N 39°43' W 075°31'0 0.0
2018-Aug-12 01:30N 39°43' W 075°31'0 0.0
2018-Aug-12 01:00N 39°43' W 075°31'0 0.0
2018-Aug-12 00:30N 39°43' W 075°31'0 0.0
2018-Aug-12 00:00N 39°43' W 075°31'0 0.0
2018-Aug-11 23:31N 39°43' W 075°31'0 0.0
2018-Aug-11 23:00N 39°43' W 075°31'0 0.0
2018-Aug-11 22:30N 39°43' W 075°31'0 0.0
2018-Aug-11 22:00N 39°43' W 075°31'0 0.0
2018-Aug-11 21:30N 39°43' W 075°31'0 0.0
2018-Aug-11 21:00N 39°43' W 075°31'0 0.0
2018-Aug-11 20:31N 39°43' W 075°31'0 0.0
2018-Aug-11 20:00N 39°43' W 075°31'0 0.0
2018-Aug-11 19:31N 39°43' W 075°31'0 0.0
2018-Aug-11 19:00N 39°43' W 075°31'0 0.0
2018-Aug-11 18:30N 39°43' W 075°31'0 0.0
2018-Aug-11 18:00N 39°43' W 075°31'0 0.0
2018-Aug-11 17:31N 39°43' W 075°31'0 0.0
2018-Aug-11 17:00N 39°43' W 075°31'0 0.0
2018-Aug-11 16:29N 39°43' W 075°31'0 0.0
2018-Aug-11 16:00N 39°43' W 075°31'0 0.0
2018-Aug-11 15:30N 39°43' W 075°31'0 0.0
2018-Aug-11 15:00N 39°43' W 075°31'0 0.0
2018-Aug-11 14:30N 39°43' W 075°31'0 0.0
2018-Aug-11 14:00N 39°43' W 075°31'0 0.0
2018-Aug-11 13:30N 39°43' W 075°31'0 0.0
2018-Aug-11 13:00N 39°43' W 075°31'0 0.0
2018-Aug-11 12:30N 39°43' W 075°31'0 0.0
2018-Aug-11 12:00N 39°43' W 075°31'0 0.0
2018-Aug-11 11:30N 39°43' W 075°31'0 0.0
2018-Aug-11 11:00N 39°43' W 075°31'0 0.0
2018-Aug-11 10:30N 39°43' W 075°31'0 0.0
2018-Aug-11 10:00N 39°43' W 075°31'0 0.0
2018-Aug-11 09:30N 39°43' W 075°31'0 0.0
2018-Aug-11 09:00N 39°43' W 075°31'0 0.0
2018-Aug-11 08:30N 39°43' W 075°31'0 0.0
2018-Aug-11 08:00N 39°43' W 075°31'0 0.0
2018-Aug-11 07:30N 39°43' W 075°31'0 0.0
2018-Aug-11 07:00N 39°43' W 075°31'0 0.0
2018-Aug-11 06:30N 39°43' W 075°31'0 0.0
2018-Aug-11 06:00N 39°43' W 075°31'0 0.0
2018-Aug-11 05:30N 39°43' W 075°31'0 0.0
2018-Aug-11 04:59N 39°43' W 075°31'0 0.0
2018-Aug-11 04:29N 39°43' W 075°31'0 0.0
2018-Aug-11 04:00N 39°43' W 075°31'0 0.0
2018-Aug-11 03:30N 39°43' W 075°31'0 0.0
2018-Aug-11 03:00N 39°43' W 075°31'0 0.0
2018-Aug-11 02:30N 39°43' W 075°31'0 0.0
2018-Aug-11 02:00N 39°43' W 075°31'0 0.0
2018-Aug-11 01:30N 39°43' W 075°31'0 0.0
2018-Aug-11 01:00N 39°43' W 075°31'0 0.0
2018-Aug-11 00:29N 39°43' W 075°31'0 0.0
2018-Aug-11 00:00N 39°43' W 075°31'0 0.0
2018-Aug-10 23:30N 39°43' W 075°31'0 0.0
2018-Aug-10 23:00N 39°43' W 075°31'0 0.0
2018-Aug-10 22:30N 39°43' W 075°31'0 0.0
2018-Aug-10 22:00N 39°43' W 075°31'0 0.0
2018-Aug-10 21:31N 39°43' W 075°31'0 0.0
2018-Aug-10 21:00N 39°43' W 075°31'0 0.0
2018-Aug-10 20:30N 39°43' W 075°31'0 0.0
2018-Aug-10 19:59N 39°43' W 075°31'0 0.0
2018-Aug-10 19:30N 39°43' W 075°31'0 0.0
2018-Aug-10 19:00N 39°43' W 075°31'0 0.0
2018-Aug-10 18:30N 39°43' W 075°31'0 0.0
2018-Aug-10 18:01N 39°43' W 075°31'0 0.0
2018-Aug-10 17:30N 39°43' W 075°31'0 0.0
2018-Aug-10 17:00N 39°43' W 075°31'0 0.0
2018-Aug-10 16:31N 39°43' W 075°31'0 0.0
2018-Aug-10 16:01N 39°43' W 075°31'0 0.0
2018-Aug-10 15:28N 39°43' W 075°31'0 0.0
2018-Aug-10 15:00N 39°43' W 075°31'0 0.0
2018-Aug-10 14:31N 39°43' W 075°31'0 0.0
2018-Aug-10 13:59N 39°43' W 075°31'0 0.0
2018-Aug-10 13:30N 39°43' W 075°31'0 0.0
2018-Aug-10 13:00N 39°43' W 075°31'0 0.0
2018-Aug-10 12:30N 39°43' W 075°31'0 0.0
2018-Aug-10 12:00N 39°43' W 075°31'0 0.0
2018-Aug-10 11:30N 39°43' W 075°31'0 0.0
2018-Aug-10 11:00N 39°43' W 075°31'0 0.0
2018-Aug-10 10:30N 39°43' W 075°31'0 0.0
2018-Aug-10 10:00N 39°43' W 075°31'0 0.0
2018-Aug-10 09:30N 39°43' W 075°31'0 0.0
2018-Aug-10 09:01N 39°43' W 075°31'0 0.0
2018-Aug-10 08:30N 39°43' W 075°31'0 0.0
2018-Aug-10 08:00N 39°43' W 075°31'0 0.0
2018-Aug-10 07:30N 39°43' W 075°31'0 0.0
2018-Aug-10 07:00N 39°43' W 075°31'0 0.0
2018-Aug-10 06:30N 39°43' W 075°31'0 0.0
2018-Aug-10 06:00N 39°43' W 075°31'0 0.0
2018-Aug-10 05:31N 39°43' W 075°31'0 0.0
2018-Aug-10 05:00N 39°43' W 075°31'0 0.0
2018-Aug-10 04:30N 39°43' W 075°31'0 0.0
2018-Aug-10 04:00N 39°43' W 075°31'0 0.0
2018-Aug-10 03:30N 39°43' W 075°31'0 0.0
2018-Aug-10 03:00N 39°43' W 075°31'0 0.0
2018-Aug-10 02:30N 39°43' W 075°31'0 0.0
2018-Aug-10 02:00N 39°43' W 075°31'0 0.0
2018-Aug-10 01:30N 39°43' W 075°31'0 0.0
2018-Aug-10 01:00N 39°43' W 075°31'0 0.0
2018-Aug-10 00:31N 39°43' W 075°31'0 0.0
2018-Aug-10 00:00N 39°43' W 075°31'0 0.0
2018-Aug-09 23:30N 39°43' W 075°31'0 0.0
2018-Aug-09 23:00N 39°43' W 075°31'0 0.0
2018-Aug-09 22:30N 39°43' W 075°31'0 0.0
2018-Aug-09 22:00N 39°43' W 075°31'0 0.0
2018-Aug-09 21:30N 39°43' W 075°31'0 0.0
2018-Aug-09 21:00N 39°43' W 075°31'0 0.0
2018-Aug-09 20:30N 39°43' W 075°31'0 0.0
2018-Aug-09 20:00N 39°43' W 075°31'0 0.0
2018-Aug-09 19:30N 39°43' W 075°31'0 0.0
2018-Aug-09 18:59N 39°43' W 075°31'0 0.0
2018-Aug-09 18:30N 39°43' W 075°31'0 0.0
2018-Aug-09 18:01N 39°43' W 075°31'0 0.0
2018-Aug-09 17:30N 39°43' W 075°31'0 0.0
2018-Aug-09 17:00N 39°43' W 075°31'0 0.0
2018-Aug-09 16:30N 39°43' W 075°31'0 0.0
2018-Aug-09 16:00N 39°43' W 075°31'0 0.0
2018-Aug-09 15:30N 39°43' W 075°31'  

Dump ship's entire track history